createdAt,value
2023-06-09T00:00:29.071Z,1010.53
2023-06-09T00:00:59.064Z,1010.521
2023-06-09T00:01:29.062Z,1010.506
2023-06-09T00:01:59.085Z,1010.511
2023-06-09T00:02:29.132Z,1010.488
2023-06-09T00:03:00.010Z,1010.471
2023-06-09T00:03:29.162Z,1010.462
2023-06-09T00:03:59.158Z,1010.452
2023-06-09T00:04:29.106Z,1010.449
2023-06-09T00:04:59.065Z,1010.45
2023-06-09T00:05:29.066Z,1010.451
2023-06-09T00:05:59.063Z,1010.448
2023-06-09T00:06:29.067Z,1010.452
2023-06-09T00:06:59.065Z,1010.457
2023-06-09T00:07:29.068Z,1010.452
2023-06-09T00:07:59.068Z,1010.45
2023-06-09T00:08:29.069Z,1010.454
2023-06-09T00:08:59.074Z,1010.45
2023-06-09T00:09:29.076Z,1010.45
2023-06-09T00:09:59.072Z,1010.453
2023-06-09T00:10:29.075Z,1010.462
2023-06-09T00:10:59.068Z,1010.474
2023-06-09T00:11:29.066Z,1010.496
2023-06-09T00:11:59.098Z,1010.506
2023-06-09T00:12:29.070Z,1010.524
2023-06-09T00:12:59.076Z,1010.546
2023-06-09T00:13:29.073Z,1010.56
2023-06-09T00:13:59.072Z,1010.57
2023-06-09T00:14:29.079Z,1010.58
2023-06-09T00:14:59.075Z,1010.593
2023-06-09T00:15:29.078Z,1010.595
2023-06-09T00:15:59.080Z,1010.589
2023-06-09T00:16:29.100Z,1010.596
2023-06-09T00:16:59.079Z,1010.602
2023-06-09T00:17:29.121Z,1010.597
2023-06-09T00:17:59.120Z,1010.59
2023-06-09T00:18:29.090Z,1010.583
2023-06-09T00:18:59.086Z,1010.585
2023-06-09T00:19:29.076Z,1010.584
2023-06-09T00:19:59.071Z,1010.584
2023-06-09T00:20:29.073Z,1010.583
2023-06-09T00:20:59.074Z,1010.583
2023-06-09T00:21:29.068Z,1010.585
2023-06-09T00:21:59.073Z,1010.584
2023-06-09T00:22:29.078Z,1010.571
2023-06-09T00:22:59.077Z,1010.574
2023-06-09T00:23:29.137Z,1010.582
2023-06-09T00:23:59.109Z,1010.585
2023-06-09T00:24:29.081Z,1010.57
2023-06-09T00:24:59.074Z,1010.576
2023-06-09T00:25:29.073Z,1010.572
2023-06-09T00:25:59.068Z,1010.571
2023-06-09T00:26:29.075Z,1010.588
2023-06-09T00:26:59.092Z,1010.593
2023-06-09T00:27:29.073Z,1010.609
2023-06-09T00:27:59.070Z,1010.621
2023-06-09T00:28:29.072Z,1010.619
2023-06-09T00:28:59.077Z,1010.621
2023-06-09T00:29:29.073Z,1010.629
2023-06-09T00:29:59.086Z,1010.619
2023-06-09T00:30:38.959Z,1010.616
2023-06-09T00:31:00.435Z,1010.616
2023-06-09T00:31:29.140Z,1010.616
2023-06-09T00:31:59.073Z,1010.608
2023-06-09T00:32:29.179Z,1010.6
2023-06-09T00:32:59.101Z,1010.597
2023-06-09T00:33:29.083Z,1010.596
2023-06-09T00:33:59.085Z,1010.592
2023-06-09T00:34:29.072Z,1010.587
2023-06-09T00:34:59.075Z,1010.588
2023-06-09T00:35:29.080Z,1010.589
2023-06-09T00:35:59.072Z,1010.592
2023-06-09T00:36:29.092Z,1010.589
2023-06-09T00:36:59.087Z,1010.593
2023-06-09T00:37:29.071Z,1010.597
2023-06-09T00:37:59.074Z,1010.597
2023-06-09T00:38:29.075Z,1010.593
2023-06-09T00:38:59.075Z,1010.598
2023-06-09T00:39:29.078Z,1010.588
2023-06-09T00:39:59.082Z,1010.586
2023-06-09T00:40:29.074Z,1010.59
2023-06-09T00:40:59.073Z,1010.586
2023-06-09T00:41:29.085Z,1010.59
2023-06-09T00:41:59.079Z,1010.599
2023-06-09T00:42:29.096Z,1010.599
2023-06-09T00:42:59.073Z,1010.611
2023-06-09T00:43:29.073Z,1010.621
2023-06-09T00:43:59.080Z,1010.634
2023-06-09T00:44:29.075Z,1010.635
2023-06-09T00:44:59.075Z,1010.638
2023-06-09T00:45:29.099Z,1010.642
2023-06-09T00:45:59.077Z,1010.645
2023-06-09T00:46:29.129Z,1010.645
2023-06-09T00:46:59.194Z,1010.64
2023-06-09T00:47:29.105Z,1010.641
2023-06-09T00:47:59.089Z,1010.64
2023-06-09T00:48:29.091Z,1010.64
2023-06-09T00:48:59.093Z,1010.64
2023-06-09T00:49:29.078Z,1010.639
2023-06-09T00:49:59.074Z,1010.644
2023-06-09T00:50:29.087Z,1010.654
2023-06-09T00:50:59.102Z,1010.653
2023-06-09T00:51:29.076Z,1010.657
2023-06-09T00:51:59.083Z,1010.657
2023-06-09T00:52:29.083Z,1010.659
2023-06-09T00:52:59.077Z,1010.656
2023-06-09T00:53:29.111Z,1010.662
2023-06-09T00:53:59.086Z,1010.667
2023-06-09T00:54:29.084Z,1010.671
2023-06-09T00:54:59.090Z,1010.671
2023-06-09T00:55:29.079Z,1010.672
2023-06-09T00:55:59.083Z,1010.674
2023-06-09T00:56:29.077Z,1010.682
2023-06-09T00:56:59.092Z,1010.69
2023-06-09T00:57:29.079Z,1010.705
2023-06-09T00:57:59.078Z,1010.714
2023-06-09T00:58:29.081Z,1010.718
2023-06-09T00:58:59.081Z,1010.701
2023-06-09T00:59:29.080Z,1010.703
2023-06-09T00:59:59.084Z,1010.705
2023-06-09T01:00:29.176Z,1010.706
2023-06-09T01:00:59.095Z,1010.71
2023-06-09T01:01:29.144Z,1010.707
2023-06-09T01:01:59.083Z,1010.704
2023-06-09T01:02:29.105Z,1010.693
2023-06-09T01:02:59.177Z,1010.687
2023-06-09T01:03:29.182Z,1010.68
2023-06-09T01:03:59.187Z,1010.676
2023-06-09T01:04:29.082Z,1010.669
2023-06-09T01:04:59.085Z,1010.66
2023-06-09T01:05:29.112Z,1010.657
2023-06-09T01:05:59.085Z,1010.652
2023-06-09T01:06:29.082Z,1010.648
2023-06-09T01:06:59.084Z,1010.642
2023-06-09T01:07:29.085Z,1010.638
2023-06-09T01:07:59.129Z,1010.625
2023-06-09T01:08:29.086Z,1010.616
2023-06-09T01:08:59.088Z,1010.619
2023-06-09T01:09:29.087Z,1010.622
2023-06-09T01:09:59.094Z,1010.618
2023-06-09T01:10:29.085Z,1010.622
2023-06-09T01:10:59.085Z,1010.624
2023-06-09T01:11:29.084Z,1010.629
2023-06-09T01:11:59.093Z,1010.625
2023-06-09T01:12:29.085Z,1010.629
2023-06-09T01:12:59.082Z,1010.643
2023-06-09T01:13:29.081Z,1010.651
2023-06-09T01:13:59.084Z,1010.654
2023-06-09T01:14:29.084Z,1010.662
2023-06-09T01:14:59.088Z,1010.672
2023-06-09T01:15:29.090Z,1010.672
2023-06-09T01:15:59.135Z,1010.675
2023-06-09T01:16:29.168Z,1010.672
2023-06-09T01:16:59.177Z,1010.677
2023-06-09T01:17:29.154Z,1010.687
2023-06-09T01:17:59.132Z,1010.683
2023-06-09T01:18:29.091Z,1010.679
2023-06-09T01:18:59.092Z,1010.672
2023-06-09T01:19:29.098Z,1010.671
2023-06-09T01:19:59.087Z,1010.688
2023-06-09T01:20:29.083Z,1010.696
2023-06-09T01:20:59.090Z,1010.695
2023-06-09T01:21:29.090Z,1010.69
2023-06-09T01:21:59.085Z,1010.691
2023-06-09T01:22:29.100Z,1010.697
2023-06-09T01:22:59.082Z,1010.7
2023-06-09T01:23:29.132Z,1010.705
2023-06-09T01:23:59.084Z,1010.713
2023-06-09T01:24:29.093Z,1010.718
2023-06-09T01:24:59.092Z,1010.722
2023-06-09T01:25:29.091Z,1010.73
2023-06-09T01:25:59.084Z,1010.738
2023-06-09T01:26:29.090Z,1010.742
2023-06-09T01:26:59.098Z,1010.761
2023-06-09T01:27:29.093Z,1010.77
2023-06-09T01:27:59.109Z,1010.781
2023-06-09T01:28:29.088Z,1010.79
2023-06-09T01:28:59.092Z,1010.801
2023-06-09T01:29:29.091Z,1010.82
2023-06-09T01:29:59.097Z,1010.823
2023-06-09T01:30:29.088Z,1010.837
2023-06-09T01:30:59.086Z,1010.825
2023-06-09T01:31:29.104Z,1010.828
2023-06-09T01:31:59.119Z,1010.828
2023-06-09T01:32:29.191Z,1010.827
2023-06-09T01:32:59.163Z,1010.824
2023-06-09T01:33:29.101Z,1010.815
2023-06-09T01:33:59.094Z,1010.809
2023-06-09T01:34:29.097Z,1010.8
2023-06-09T01:34:59.097Z,1010.794
2023-06-09T01:35:29.694Z,1010.797
2023-06-09T01:35:59.092Z,1010.789
2023-06-09T01:36:29.088Z,1010.786
2023-06-09T01:36:59.103Z,1010.794
2023-06-09T01:37:29.095Z,1010.788
2023-06-09T01:37:59.098Z,1010.785
2023-06-09T01:38:29.090Z,1010.785
2023-06-09T01:38:59.096Z,1010.794
2023-06-09T01:39:29.090Z,1010.795
2023-06-09T01:39:59.131Z,1010.794
2023-06-09T01:40:29.115Z,1010.799
2023-06-09T01:40:59.111Z,1010.805
2023-06-09T01:41:29.089Z,1010.82
2023-06-09T01:41:59.090Z,1010.835
2023-06-09T01:42:29.100Z,1010.836
2023-06-09T01:42:59.103Z,1010.835
2023-06-09T01:43:29.104Z,1010.839
2023-06-09T01:43:59.091Z,1010.843
2023-06-09T01:44:29.091Z,1010.853
2023-06-09T01:44:59.096Z,1010.853
2023-06-09T01:45:29.105Z,1010.859
2023-06-09T01:45:59.141Z,1010.852
2023-06-09T01:46:29.153Z,1010.848
2023-06-09T01:46:59.091Z,1010.837
2023-06-09T01:47:29.192Z,1010.831
2023-06-09T01:47:59.171Z,1010.823
2023-06-09T01:48:29.116Z,1010.803
2023-06-09T01:48:59.096Z,1010.795
2023-06-09T01:49:29.107Z,1010.794
2023-06-09T01:49:59.088Z,1010.789
2023-06-09T01:50:29.090Z,1010.785
2023-06-09T01:50:59.094Z,1010.78
2023-06-09T01:51:29.107Z,1010.767
2023-06-09T01:51:59.103Z,1010.765
2023-06-09T01:52:29.097Z,1010.759
2023-06-09T01:52:59.102Z,1010.755
2023-06-09T01:53:29.129Z,1010.76
2023-06-09T01:53:59.097Z,1010.762
2023-06-09T01:54:29.101Z,1010.756
2023-06-09T01:54:59.090Z,1010.753
2023-06-09T01:55:29.100Z,1010.755
2023-06-09T01:55:59.095Z,1010.756
2023-06-09T01:56:29.097Z,1010.75
2023-06-09T01:56:59.123Z,1010.75
2023-06-09T01:57:29.102Z,1010.757
2023-06-09T01:57:59.097Z,1010.763
2023-06-09T01:58:29.099Z,1010.771
2023-06-09T01:58:59.095Z,1010.777
2023-06-09T01:59:29.098Z,1010.783
2023-06-09T01:59:59.097Z,1010.783
2023-06-09T02:00:29.093Z,1010.778
2023-06-09T02:00:59.094Z,1010.773
2023-06-09T02:01:29.123Z,1010.783
2023-06-09T02:01:59.135Z,1010.787
2023-06-09T02:02:29.150Z,1010.791
2023-06-09T02:02:59.187Z,1010.79
2023-06-09T02:03:29.165Z,1010.786
2023-06-09T02:03:59.143Z,1010.796
2023-06-09T02:04:29.101Z,1010.799
2023-06-09T02:04:59.097Z,1010.802
2023-06-09T02:05:29.094Z,1010.794
2023-06-09T02:05:59.099Z,1010.788
2023-06-09T02:06:29.099Z,1010.784
2023-06-09T02:06:59.095Z,1010.784
2023-06-09T02:07:29.101Z,1010.781
2023-06-09T02:07:59.104Z,1010.786
2023-06-09T02:08:29.098Z,1010.784
2023-06-09T02:08:59.097Z,1010.781
2023-06-09T02:09:29.103Z,1010.788
2023-06-09T02:09:59.104Z,1010.796
2023-06-09T02:10:29.097Z,1010.799
2023-06-09T02:10:59.113Z,1010.797
2023-06-09T02:11:29.097Z,1010.809
2023-06-09T02:11:59.095Z,1010.823
2023-06-09T02:12:29.098Z,1010.836
2023-06-09T02:12:59.131Z,1010.852
2023-06-09T02:13:29.103Z,1010.862
2023-06-09T02:13:59.098Z,1010.875
2023-06-09T02:14:29.109Z,1010.885
2023-06-09T02:14:59.097Z,1010.896
2023-06-09T02:15:29.109Z,1010.875
2023-06-09T02:15:59.121Z,1010.872
2023-06-09T02:16:29.123Z,1010.863
2023-06-09T02:16:59.102Z,1010.857
2023-06-09T02:17:29.149Z,1010.854
2023-06-09T02:17:59.126Z,1010.843
2023-06-09T02:18:29.107Z,1010.839
2023-06-09T02:18:59.104Z,1010.836
2023-06-09T02:19:29.105Z,1010.828
2023-06-09T02:19:59.104Z,1010.824
2023-06-09T02:20:29.109Z,1010.808
2023-06-09T02:20:59.106Z,1010.827
2023-06-09T02:21:29.104Z,1010.815
2023-06-09T02:21:59.112Z,1010.807
2023-06-09T02:22:29.106Z,1010.799
2023-06-09T02:22:59.102Z,1010.795
2023-06-09T02:23:29.098Z,1010.789
2023-06-09T02:23:59.140Z,1010.791
2023-06-09T02:24:29.114Z,1010.799
2023-06-09T02:24:59.106Z,1010.794
2023-06-09T02:25:29.107Z,1010.805
2023-06-09T02:25:59.102Z,1010.807
2023-06-09T02:26:29.101Z,1010.816
2023-06-09T02:26:59.102Z,1010.822
2023-06-09T02:27:29.108Z,1010.834
2023-06-09T02:27:59.135Z,1010.846
2023-06-09T02:28:29.102Z,1010.85
2023-06-09T02:28:59.117Z,1010.848
2023-06-09T02:29:29.125Z,1010.852
2023-06-09T02:29:59.109Z,1010.861
2023-06-09T02:30:29.122Z,1010.858
2023-06-09T02:30:59.109Z,1010.866
2023-06-09T02:31:29.164Z,1010.861
2023-06-09T02:31:59.142Z,1010.868
2023-06-09T02:32:29.156Z,1010.868
2023-06-09T02:32:59.157Z,1010.871
2023-06-09T02:33:29.106Z,1010.858
2023-06-09T02:33:59.107Z,1010.865
2023-06-09T02:34:29.112Z,1010.864
2023-06-09T02:34:59.129Z,1010.869
2023-06-09T02:35:29.106Z,1010.866
2023-06-09T02:35:59.126Z,1010.885
2023-06-09T02:36:29.112Z,1010.888
2023-06-09T02:36:59.105Z,1010.881
2023-06-09T02:37:29.110Z,1010.884
2023-06-09T02:37:59.116Z,1010.887
2023-06-09T02:38:29.105Z,1010.879
2023-06-09T02:38:59.124Z,1010.876
2023-06-09T02:39:29.113Z,1010.88
2023-06-09T02:39:59.114Z,1010.875
2023-06-09T02:40:29.125Z,1010.881
2023-06-09T02:40:59.110Z,1010.892
2023-06-09T02:41:29.112Z,1010.884
2023-06-09T02:41:59.108Z,1010.897
2023-06-09T02:42:29.116Z,1010.897
2023-06-09T02:42:59.110Z,1010.915
2023-06-09T02:43:29.116Z,1010.918
2023-06-09T02:43:59.108Z,1010.927
2023-06-09T02:44:29.108Z,1010.924
2023-06-09T02:44:59.116Z,1010.919
2023-06-09T02:45:29.142Z,1010.917
2023-06-09T02:45:59.177Z,1010.912
2023-06-09T02:46:29.130Z,1010.91
2023-06-09T02:46:59.109Z,1010.9
2023-06-09T02:47:29.163Z,1010.899
2023-06-09T02:47:59.170Z,1010.897
2023-06-09T02:48:29.117Z,1010.891
2023-06-09T02:48:59.128Z,1010.877
2023-06-09T02:49:29.117Z,1010.878
2023-06-09T02:49:59.114Z,1010.873
2023-06-09T02:50:29.113Z,1010.863
2023-06-09T02:50:59.118Z,1010.855
2023-06-09T02:51:29.109Z,1010.849
2023-06-09T02:51:59.122Z,1010.847
2023-06-09T02:52:29.120Z,1010.842
2023-06-09T02:52:59.163Z,1010.826
2023-06-09T02:53:29.209Z,1010.819
2023-06-09T02:53:59.113Z,1010.802
2023-06-09T02:54:29.119Z,1010.804
2023-06-09T02:54:59.119Z,1010.793
2023-06-09T02:55:29.114Z,1010.774
2023-06-09T02:55:59.121Z,1010.772
2023-06-09T02:56:29.114Z,1010.766
2023-06-09T02:56:59.112Z,1010.761
2023-06-09T02:57:29.128Z,1010.773
2023-06-09T02:57:59.117Z,1010.773
2023-06-09T02:58:29.119Z,1010.773
2023-06-09T02:58:59.122Z,1010.779
2023-06-09T02:59:29.115Z,1010.773
2023-06-09T02:59:59.115Z,1010.768
2023-06-09T03:00:29.119Z,1010.772
2023-06-09T03:00:59.211Z,1010.767
2023-06-09T03:01:29.201Z,1010.767
2023-06-09T03:01:59.146Z,1010.752
2023-06-09T03:02:29.157Z,1010.756
2023-06-09T03:02:59.230Z,1010.76
2023-06-09T03:03:29.303Z,1010.767
2023-06-09T03:03:59.184Z,1010.759
2023-06-09T03:04:29.148Z,1010.757
2023-06-09T03:04:59.130Z,1010.761
2023-06-09T03:05:29.130Z,1010.77
2023-06-09T03:05:59.116Z,1010.781
2023-06-09T03:06:29.115Z,1010.78
2023-06-09T03:06:59.114Z,1010.773
2023-06-09T03:07:29.117Z,1010.777
2023-06-09T03:07:59.157Z,1010.782
2023-06-09T03:08:29.124Z,1010.788
2023-06-09T03:08:59.124Z,1010.791
2023-06-09T03:09:29.130Z,1010.799
2023-06-09T03:09:59.116Z,1010.798
2023-06-09T03:10:29.117Z,1010.804
2023-06-09T03:10:59.121Z,1010.812
2023-06-09T03:11:29.127Z,1010.821
2023-06-09T03:11:59.117Z,1010.823
2023-06-09T03:12:29.120Z,1010.838
2023-06-09T03:12:59.125Z,1010.861
2023-06-09T03:13:29.118Z,1010.881
2023-06-09T03:13:59.131Z,1010.9
2023-06-09T03:14:29.118Z,1010.911
2023-06-09T03:14:59.129Z,1010.926
2023-06-09T03:15:29.118Z,1010.929
2023-06-09T03:15:59.119Z,1010.936
2023-06-09T03:16:29.189Z,1010.943
2023-06-09T03:16:59.141Z,1010.956
2023-06-09T03:17:29.152Z,1010.966
2023-06-09T03:17:59.265Z,1010.965
2023-06-09T03:18:29.150Z,1010.97
2023-06-09T03:18:59.132Z,1010.977
2023-06-09T03:19:29.149Z,1010.984
2023-06-09T03:19:59.120Z,1010.989
2023-06-09T03:20:29.361Z,1010.994
2023-06-09T03:20:59.120Z,1010.997
2023-06-09T03:21:29.127Z,1011.01
2023-06-09T03:21:59.156Z,1011.023
2023-06-09T03:22:29.120Z,1011.024
2023-06-09T03:22:59.125Z,1011.029
2023-06-09T03:23:29.161Z,1011.027
2023-06-09T03:23:59.218Z,1011.035
2023-06-09T03:24:29.123Z,1011.046
2023-06-09T03:24:59.129Z,1011.042
2023-06-09T03:25:29.124Z,1011.05
2023-06-09T03:25:59.120Z,1011.056
2023-06-09T03:26:29.124Z,1011.063
2023-06-09T03:26:59.130Z,1011.065
2023-06-09T03:27:29.129Z,1011.081
2023-06-09T03:27:59.159Z,1011.098
2023-06-09T03:28:29.122Z,1011.106
2023-06-09T03:28:59.125Z,1011.119
2023-06-09T03:29:29.143Z,1011.118
2023-06-09T03:29:59.136Z,1011.127
2023-06-09T03:30:29.125Z,1011.14
2023-06-09T03:30:59.170Z,1011.141
2023-06-09T03:31:29.216Z,1011.14
2023-06-09T03:31:59.132Z,1011.135
2023-06-09T03:32:29.162Z,1011.125
2023-06-09T03:32:59.250Z,1011.126
2023-06-09T03:33:29.132Z,1011.115
2023-06-09T03:33:59.133Z,1011.12
2023-06-09T03:34:29.137Z,1011.107
2023-06-09T03:34:59.139Z,1011.098
2023-06-09T03:35:29.123Z,1011.093
2023-06-09T03:35:59.132Z,1011.093
2023-06-09T03:36:29.124Z,1011.097
2023-06-09T03:36:59.132Z,1011.104
2023-06-09T03:37:29.137Z,1011.102
2023-06-09T03:37:59.123Z,1011.102
2023-06-09T03:38:29.130Z,1011.102
2023-06-09T03:38:59.135Z,1011.099
2023-06-09T03:39:29.135Z,1011.093
2023-06-09T03:39:59.130Z,1011.095
2023-06-09T03:40:29.130Z,1011.1
2023-06-09T03:40:59.128Z,1011.101
2023-06-09T03:41:29.129Z,1011.1
2023-06-09T03:41:59.171Z,1011.113
2023-06-09T03:42:29.125Z,1011.111
2023-06-09T03:42:59.133Z,1011.114
2023-06-09T03:43:29.128Z,1011.128
2023-06-09T03:43:59.128Z,1011.147
2023-06-09T03:44:29.131Z,1011.152
2023-06-09T03:44:59.126Z,1011.152
2023-06-09T03:45:29.129Z,1011.156
2023-06-09T03:45:59.136Z,1011.157
2023-06-09T03:46:29.225Z,1011.163
2023-06-09T03:46:59.266Z,1011.146
2023-06-09T03:47:29.184Z,1011.14
2023-06-09T03:47:59.217Z,1011.12
2023-06-09T03:48:29.131Z,1011.095
2023-06-09T03:48:59.136Z,1011.067
2023-06-09T03:49:29.150Z,1011.032
2023-06-09T03:49:59.138Z,1011.006
2023-06-09T03:50:29.129Z,1010.965
2023-06-09T03:50:59.139Z,1010.935
2023-06-09T03:51:29.133Z,1010.92
2023-06-09T03:51:59.142Z,1010.909
2023-06-09T03:52:29.134Z,1010.893
2023-06-09T03:52:59.130Z,1010.882
2023-06-09T03:53:29.130Z,1010.874
2023-06-09T03:53:59.157Z,1010.876
2023-06-09T03:54:29.140Z,1010.869
2023-06-09T03:54:59.137Z,1010.881
2023-06-09T03:55:29.132Z,1010.883
2023-06-09T03:55:59.132Z,1010.88
2023-06-09T03:56:29.133Z,1010.866
2023-06-09T03:56:59.134Z,1010.855
2023-06-09T03:57:29.152Z,1010.855
2023-06-09T03:57:59.134Z,1010.858
2023-06-09T03:58:29.139Z,1010.855
2023-06-09T03:58:59.152Z,1010.857
2023-06-09T03:59:29.150Z,1010.858
2023-06-09T03:59:59.142Z,1010.85
2023-06-09T04:00:29.139Z,1010.835
2023-06-09T04:00:59.150Z,1010.841
2023-06-09T04:01:29.138Z,1010.841
2023-06-09T04:01:59.167Z,1010.84
2023-06-09T04:02:29.306Z,1010.838
2023-06-09T04:02:59.157Z,1010.844
2023-06-09T04:03:29.155Z,1010.853
2023-06-09T04:03:59.166Z,1010.834
2023-06-09T04:04:29.194Z,1010.822
2023-06-09T04:04:59.141Z,1010.815
2023-06-09T04:05:29.138Z,1010.818
2023-06-09T04:05:59.159Z,1010.806
2023-06-09T04:06:29.139Z,1010.792
2023-06-09T04:06:59.143Z,1010.8
2023-06-09T04:07:29.145Z,1010.797
2023-06-09T04:07:59.142Z,1010.785
2023-06-09T04:08:29.146Z,1010.789
2023-06-09T04:08:59.141Z,1010.776
2023-06-09T04:09:29.141Z,1010.768
2023-06-09T04:09:59.148Z,1010.746
2023-06-09T04:10:29.145Z,1010.743
2023-06-09T04:10:59.142Z,1010.735
2023-06-09T04:11:29.150Z,1010.749
2023-06-09T04:11:59.141Z,1010.756
2023-06-09T04:12:29.144Z,1010.764
2023-06-09T04:12:59.150Z,1010.784
2023-06-09T04:13:29.152Z,1010.779
2023-06-09T04:13:59.145Z,1010.777
2023-06-09T04:14:29.148Z,1010.775
2023-06-09T04:14:59.145Z,1010.774
2023-06-09T04:15:29.186Z,1010.766
2023-06-09T04:15:59.177Z,1010.768
2023-06-09T04:16:29.185Z,1010.776
2023-06-09T04:16:59.200Z,1010.771
2023-06-09T04:17:29.250Z,1010.779
2023-06-09T04:17:59.227Z,1010.782
2023-06-09T04:18:29.177Z,1010.792
2023-06-09T04:18:59.161Z,1010.789
2023-06-09T04:19:29.159Z,1010.778
2023-06-09T04:19:59.150Z,1010.763
2023-06-09T04:20:29.164Z,1010.755
2023-06-09T04:20:59.148Z,1010.766
2023-06-09T04:21:29.152Z,1010.782
2023-06-09T04:21:59.145Z,1010.805
2023-06-09T04:22:29.169Z,1010.806
2023-06-09T04:22:59.149Z,1010.81
2023-06-09T04:23:29.192Z,1010.809
2023-06-09T04:23:59.218Z,1010.804
2023-06-09T04:24:29.159Z,1010.798
2023-06-09T04:24:59.146Z,1010.806
2023-06-09T04:25:29.152Z,1010.835
2023-06-09T04:25:59.150Z,1010.872
2023-06-09T04:26:29.162Z,1010.898
2023-06-09T04:26:59.166Z,1010.906
2023-06-09T04:27:29.158Z,1010.905
2023-06-09T04:27:59.153Z,1010.893
2023-06-09T04:28:29.169Z,1010.88
2023-06-09T04:28:59.153Z,1010.864
2023-06-09T04:29:29.166Z,1010.853
2023-06-09T04:29:59.156Z,1010.847
2023-06-09T04:30:29.151Z,1010.852
2023-06-09T04:30:59.152Z,1010.854
2023-06-09T04:31:29.190Z,1010.849
2023-06-09T04:31:59.202Z,1010.858
2023-06-09T04:32:29.212Z,1010.853
2023-06-09T04:32:59.178Z,1010.842
2023-06-09T04:33:29.167Z,1010.844
2023-06-09T04:33:59.158Z,1010.836
2023-06-09T04:34:29.157Z,1010.833
2023-06-09T04:34:59.158Z,1010.82
2023-06-09T04:35:29.157Z,1010.813
2023-06-09T04:35:59.158Z,1010.802
2023-06-09T04:36:29.155Z,1010.806
2023-06-09T04:36:59.154Z,1010.793
2023-06-09T04:37:29.157Z,1010.812
2023-06-09T04:38:00.829Z,1010.809
2023-06-09T04:38:30.112Z,1010.823
2023-06-09T04:38:59.156Z,1010.826
2023-06-09T04:39:29.157Z,1010.815
2023-06-09T04:39:59.153Z,1010.81
2023-06-09T04:40:29.154Z,1010.843
2023-06-09T04:40:59.234Z,1010.84
2023-06-09T04:41:29.154Z,1010.843
2023-06-09T04:41:59.157Z,1010.861
2023-06-09T04:42:29.162Z,1010.864
2023-06-09T04:42:59.160Z,1010.857
2023-06-09T04:43:29.157Z,1010.86
2023-06-09T04:43:59.163Z,1010.856
2023-06-09T04:44:29.155Z,1010.853
2023-06-09T04:44:59.158Z,1010.865
2023-06-09T04:45:29.219Z,1010.86
2023-06-09T04:45:59.163Z,1010.887
2023-06-09T04:46:29.205Z,1010.908
2023-06-09T04:46:59.163Z,1010.898
2023-06-09T04:47:29.188Z,1010.888
2023-06-09T04:47:59.191Z,1010.892
2023-06-09T04:48:29.159Z,1010.876
2023-06-09T04:48:59.163Z,1010.863
2023-06-09T04:49:29.164Z,1010.878
2023-06-09T04:49:59.165Z,1010.893
2023-06-09T04:50:29.164Z,1010.897
2023-06-09T04:50:59.190Z,1010.886
2023-06-09T04:51:29.158Z,1010.867
2023-06-09T04:51:59.161Z,1010.854
2023-06-09T04:52:29.164Z,1010.843
2023-06-09T04:52:59.164Z,1010.837
2023-06-09T04:53:29.161Z,1010.842
2023-06-09T04:53:59.166Z,1010.831
2023-06-09T04:54:29.161Z,1010.818
2023-06-09T04:54:59.159Z,1010.81
2023-06-09T04:55:29.169Z,1010.791
2023-06-09T04:55:59.162Z,1010.773
2023-06-09T04:56:29.178Z,1010.778
2023-06-09T04:56:59.170Z,1010.798
2023-06-09T04:57:29.162Z,1010.818
2023-06-09T04:57:59.168Z,1010.838
2023-06-09T04:58:29.174Z,1010.836
2023-06-09T04:58:59.160Z,1010.847
2023-06-09T04:59:29.170Z,1010.867
2023-06-09T04:59:59.170Z,1010.881
2023-06-09T05:00:29.172Z,1010.877
2023-06-09T05:00:59.168Z,1010.862
2023-06-09T05:01:29.195Z,1010.861
2023-06-09T05:01:59.344Z,1010.847
2023-06-09T05:02:30.704Z,1010.868
2023-06-09T05:03:00.264Z,1010.888
2023-06-09T05:03:29.165Z,1010.894
2023-06-09T05:03:59.165Z,1010.89
2023-06-09T05:04:29.165Z,1010.891
2023-06-09T05:04:59.183Z,1010.868
2023-06-09T05:05:29.191Z,1010.845
2023-06-09T05:05:59.168Z,1010.842
2023-06-09T05:06:29.171Z,1010.828
2023-06-09T05:06:59.160Z,1010.831
2023-06-09T05:07:29.181Z,1010.845
2023-06-09T05:07:59.164Z,1010.841
2023-06-09T05:08:31.621Z,1010.828
2023-06-09T05:09:00.431Z,1010.817
2023-06-09T05:09:29.184Z,1010.808
2023-06-09T05:09:59.174Z,1010.799
2023-06-09T05:10:29.168Z,1010.789
2023-06-09T05:10:59.166Z,1010.782
2023-06-09T05:11:29.165Z,1010.777
2023-06-09T05:11:59.163Z,1010.784
2023-06-09T05:12:29.164Z,1010.779
2023-06-09T05:12:59.176Z,1010.794
2023-06-09T05:13:29.170Z,1010.851
2023-06-09T05:13:59.168Z,1010.875
2023-06-09T05:14:31.963Z,1010.876
2023-06-09T05:15:00.285Z,1010.893
2023-06-09T05:15:29.207Z,1010.905
2023-06-09T05:15:59.183Z,1010.897
2023-06-09T05:16:29.199Z,1010.892
2023-06-09T05:16:59.168Z,1010.882
2023-06-09T05:17:29.274Z,1010.888
2023-06-09T05:17:59.277Z,1010.896
2023-06-09T05:18:29.170Z,1010.901
2023-06-09T05:18:59.172Z,1010.901
2023-06-09T05:19:29.169Z,1010.886
2023-06-09T05:19:59.173Z,1010.879
2023-06-09T05:20:29.176Z,1010.884
2023-06-09T05:20:59.179Z,1010.892
2023-06-09T05:21:29.180Z,1010.873
2023-06-09T05:21:59.168Z,1010.864
2023-06-09T05:22:29.199Z,1010.855
2023-06-09T05:22:59.171Z,1010.853
2023-06-09T05:23:29.196Z,1010.849
2023-06-09T05:23:59.267Z,1010.845
2023-06-09T05:24:29.179Z,1010.84
2023-06-09T05:24:59.175Z,1010.863
2023-06-09T05:25:29.175Z,1010.9
2023-06-09T05:25:59.170Z,1010.929
2023-06-09T05:26:29.173Z,1010.945
2023-06-09T05:26:59.179Z,1010.934
2023-06-09T05:27:29.174Z,1010.924
2023-06-09T05:27:59.174Z,1010.919
2023-06-09T05:28:29.174Z,1010.917
2023-06-09T05:28:59.172Z,1010.924
2023-06-09T05:29:29.170Z,1010.933
2023-06-09T05:29:59.177Z,1010.942
2023-06-09T05:30:29.178Z,1010.95
2023-06-09T05:30:59.170Z,1010.943
2023-06-09T05:31:29.230Z,1010.947
2023-06-09T05:31:59.218Z,1010.948
2023-06-09T05:32:29.190Z,1010.96
2023-06-09T05:32:59.246Z,1010.989
2023-06-09T05:33:29.178Z,1010.988
2023-06-09T05:33:59.176Z,1010.979
2023-06-09T05:34:29.175Z,1010.976
2023-06-09T05:34:59.172Z,1010.97
2023-06-09T05:35:29.177Z,1010.976
2023-06-09T05:35:59.183Z,1010.978
2023-06-09T05:36:29.193Z,1010.988
2023-06-09T05:36:59.195Z,1010.993
2023-06-09T05:37:29.186Z,1010.981
2023-06-09T05:37:59.174Z,1010.959
2023-06-09T05:38:29.191Z,1010.937
2023-06-09T05:38:59.191Z,1010.904
2023-06-09T05:39:29.181Z,1010.875
2023-06-09T05:39:59.177Z,1010.862
2023-06-09T05:40:29.182Z,1010.857
2023-06-09T05:40:59.186Z,1010.885
2023-06-09T05:41:29.179Z,1010.918
2023-06-09T05:41:59.192Z,1010.926
2023-06-09T05:42:29.187Z,1010.921
2023-06-09T05:42:59.189Z,1010.914
2023-06-09T05:43:29.182Z,1010.913
2023-06-09T05:43:59.227Z,1010.927
2023-06-09T05:44:29.194Z,1010.927
2023-06-09T05:44:59.183Z,1010.936
2023-06-09T05:45:29.188Z,1010.933
2023-06-09T05:45:59.229Z,1010.932
2023-06-09T05:46:29.348Z,1010.951
2023-06-09T05:46:59.186Z,1010.986
2023-06-09T05:47:29.207Z,1011
2023-06-09T05:47:59.245Z,1010.998
2023-06-09T05:48:29.185Z,1010.992
2023-06-09T05:48:59.200Z,1010.983
2023-06-09T05:49:29.204Z,1010.963
2023-06-09T05:49:59.183Z,1010.936
2023-06-09T05:50:29.200Z,1010.907
2023-06-09T05:50:59.228Z,1010.888
2023-06-09T05:51:29.188Z,1010.878
2023-06-09T05:51:59.192Z,1010.883
2023-06-09T05:52:31.035Z,1010.872
2023-06-09T05:52:59.194Z,1010.863
2023-06-09T05:53:29.192Z,1010.84